Terminal Aerodrome Forecast
Issued by NWS

Home | Current Version | Previous Version | Graphics & Text | Print | Product List | Glossary On
Versions: 1 2 3 4 5 6 7 8 9 10 11 12 13 14 15 16 17 18 19 20 21 22
000
FTUS45 KGGW 140500
TAFGDV
TAF
KGDV 140529Z 1406/1506 33004KT P6SM FEW050 SCT250
     FM141100 VRB05KT P6SM SCT150
     FM142100 01007KT P6SM FEW120
      AMD LTD TO CLD VIS AND WIND=

USA.gov is the U.S. government's official web portal to all federal, state and local government web resources and services.